createdAt,value
2023-05-21T00:01:26.067Z,1019.39
2023-05-21T00:02:29.610Z,1019.38
2023-05-21T00:04:05.891Z,1019.41
2023-05-21T00:05:08.981Z,1019.37
2023-05-21T00:06:13.000Z,1019.39
2023-05-21T00:07:48.886Z,1019.38
2023-05-21T00:08:51.962Z,1019.38
2023-05-21T00:09:55.159Z,1019.39
2023-05-21T00:11:30.400Z,1019.39
2023-05-21T00:12:33.709Z,1019.36
2023-05-21T00:13:37.168Z,1019.35
2023-05-21T00:15:12.286Z,1019.29
2023-05-21T00:16:15.652Z,1019.29
2023-05-21T00:17:18.985Z,1019.25
2023-05-21T00:18:54.734Z,1019.23
2023-05-21T00:19:58.215Z,1019.22
2023-05-21T00:21:01.182Z,1019.24
2023-05-21T00:22:36.381Z,1019.22
2023-05-21T00:23:39.627Z,1019.21
2023-05-21T00:24:42.938Z,1019.20
2023-05-21T00:26:17.781Z,1019.19
2023-05-21T00:27:20.809Z,1019.15
2023-05-21T00:28:24.299Z,1019.14
2023-05-21T00:29:59.587Z,1019.12
2023-05-21T00:31:02.860Z,1019.11
2023-05-21T00:32:06.488Z,1019.11
2023-05-21T00:33:43.152Z,1019.08
2023-05-21T00:34:46.445Z,1019.06
2023-05-21T00:35:50.149Z,1019.07
2023-05-21T00:37:24.972Z,1019.07
2023-05-21T00:38:28.106Z,1019.06
2023-05-21T00:39:31.158Z,1019.06
2023-05-21T00:41:06.349Z,1019.05
2023-05-21T00:42:09.657Z,1019.06
2023-05-21T00:43:12.772Z,1019.05
2023-05-21T00:44:47.922Z,1019.07
2023-05-21T00:45:51.322Z,1019.10
2023-05-21T00:46:54.738Z,1019.07
2023-05-21T00:48:29.708Z,1019.03
2023-05-21T00:49:33.002Z,1019.08
2023-05-21T00:50:36.063Z,1019.05
2023-05-21T00:52:11.200Z,1019.04
2023-05-21T00:53:14.162Z,1019.03
2023-05-21T00:54:17.014Z,1018.99
2023-05-21T00:55:51.991Z,1019.02
2023-05-21T00:56:55.242Z,1019.00
2023-05-21T00:57:58.516Z,1019.02
2023-05-21T00:59:33.666Z,1019.04
2023-05-21T01:00:23.852Z,1019.03
2023-05-21T01:01:27.134Z,1019.05
2023-05-21T01:02:30.896Z,1019.04
2023-05-21T01:04:07.218Z,1019.03
2023-05-21T01:05:10.476Z,1019.02
2023-05-21T01:06:13.255Z,1019.03
2023-05-21T01:07:48.105Z,1019.02
2023-05-21T01:08:51.042Z,1019.03
2023-05-21T01:09:56.746Z,1019.00
2023-05-21T01:11:31.968Z,1019.00
2023-05-21T01:12:35.204Z,1018.98
2023-05-21T01:13:38.222Z,1018.98
2023-05-21T01:15:13.317Z,1018.98
2023-05-21T01:16:16.272Z,1019.02
2023-05-21T01:17:19.797Z,1018.97
2023-05-21T01:18:55.470Z,1018.99
2023-05-21T01:19:59.617Z,1018.97
2023-05-21T01:21:05.679Z,1018.96
2023-05-21T01:22:40.889Z,1018.95
2023-05-21T01:23:43.881Z,1018.91
2023-05-21T01:24:46.911Z,1018.93
2023-05-21T01:26:22.657Z,1018.90
2023-05-21T01:27:25.930Z,1018.90
2023-05-21T01:28:28.894Z,1018.91
2023-05-21T01:30:03.590Z,1018.84
2023-05-21T01:31:06.518Z,1018.82
2023-05-21T01:32:10.028Z,1018.81
2023-05-21T01:33:45.683Z,1018.85
2023-05-21T01:34:49.868Z,1018.80
2023-05-21T01:35:53.204Z,1018.81
2023-05-21T01:37:28.666Z,1018.78
2023-05-21T01:38:31.610Z,1018.78
2023-05-21T01:39:34.824Z,1018.75
2023-05-21T01:41:09.984Z,1018.78
2023-05-21T01:42:13.071Z,1018.71
2023-05-21T01:43:16.077Z,1018.78
2023-05-21T01:44:50.919Z,1018.71
2023-05-21T01:45:53.962Z,1018.71
2023-05-21T01:46:57.634Z,1018.70
2023-05-21T01:48:32.890Z,1018.69
2023-05-21T01:49:36.057Z,1018.72
2023-05-21T01:50:39.184Z,1018.67
2023-05-21T01:52:14.353Z,1018.67
2023-05-21T01:53:17.554Z,1018.65
2023-05-21T01:54:20.773Z,1018.67
2023-05-21T01:55:55.801Z,1018.67
2023-05-21T01:56:58.894Z,1018.69
2023-05-21T01:58:02.733Z,1018.64
2023-05-21T01:59:37.870Z,1018.65
2023-05-21T02:01:27.146Z,1018.64
2023-05-21T02:02:30.744Z,1018.66
2023-05-21T02:04:06.748Z,1018.64
2023-05-21T02:05:10.258Z,1018.63
2023-05-21T02:06:13.363Z,1018.63
2023-05-21T02:07:48.552Z,1018.64
2023-05-21T02:08:51.871Z,1018.63
2023-05-21T02:09:55.038Z,1018.67
2023-05-21T02:11:30.270Z,1018.63
2023-05-21T02:12:33.345Z,1018.64
2023-05-21T02:13:38.277Z,1018.68
2023-05-21T02:15:13.502Z,1018.71
2023-05-21T02:16:16.646Z,1018.71
2023-05-21T02:17:20.178Z,1018.66
2023-05-21T02:18:55.504Z,1018.64
2023-05-21T02:19:58.741Z,1018.61
2023-05-21T02:21:01.638Z,1018.63
2023-05-21T02:22:36.694Z,1018.63
2023-05-21T02:23:39.996Z,1018.60
2023-05-21T02:24:43.181Z,1018.60
2023-05-21T02:26:18.380Z,1018.56
2023-05-21T02:27:21.452Z,1018.59
2023-05-21T02:28:24.786Z,1018.56
2023-05-21T02:30:00.114Z,1018.57
2023-05-21T02:31:03.258Z,1018.62
2023-05-21T02:32:06.380Z,1018.60
2023-05-21T02:33:41.790Z,1018.58
2023-05-21T02:34:45.164Z,1018.58
2023-05-21T02:35:48.625Z,1018.57
2023-05-21T02:37:23.703Z,1018.61
2023-05-21T02:38:26.956Z,1018.57
2023-05-21T02:39:30.250Z,1018.61
2023-05-21T02:41:05.425Z,1018.61
2023-05-21T02:42:08.628Z,1018.60
2023-05-21T02:43:13.490Z,1018.59
2023-05-21T02:44:50.068Z,1018.63
2023-05-21T02:45:53.671Z,1018.60
2023-05-21T02:46:57.017Z,1018.64
2023-05-21T02:48:31.632Z,1018.58
2023-05-21T02:49:34.826Z,1018.60
2023-05-21T02:50:37.782Z,1018.59
2023-05-21T02:52:12.797Z,1018.58
2023-05-21T02:53:16.160Z,1018.56
2023-05-21T02:54:19.500Z,1018.53
2023-05-21T02:55:54.766Z,1018.51
2023-05-21T02:56:57.761Z,1018.52
2023-05-21T02:58:00.970Z,1018.53
2023-05-21T02:59:36.226Z,1018.54
2023-05-21T03:01:26.828Z,1018.54
2023-05-21T03:02:30.708Z,1018.54
2023-05-21T03:04:06.859Z,1018.51
2023-05-21T03:05:09.848Z,1018.51
2023-05-21T03:06:13.009Z,1018.54
2023-05-21T03:07:48.259Z,1018.52
2023-05-21T03:08:51.415Z,1018.54
2023-05-21T03:09:54.427Z,1018.58
2023-05-21T03:11:29.485Z,1018.55
2023-05-21T03:12:32.739Z,1018.53
2023-05-21T03:13:36.488Z,1018.51
2023-05-21T03:15:11.970Z,1018.50
2023-05-21T03:16:15.285Z,1018.51
2023-05-21T03:17:18.901Z,1018.54
2023-05-21T03:18:54.696Z,1018.53
2023-05-21T03:19:58.195Z,1018.52
2023-05-21T03:21:01.399Z,1018.53
2023-05-21T03:22:36.476Z,1018.53
2023-05-21T03:23:39.900Z,1018.50
2023-05-21T03:24:43.153Z,1018.47
2023-05-21T03:26:18.150Z,1018.46
2023-05-21T03:27:21.153Z,1018.43
2023-05-21T03:28:24.216Z,1018.42
2023-05-21T03:29:59.450Z,1018.42
2023-05-21T03:31:04.408Z,1018.43
2023-05-21T03:32:07.891Z,1018.43
2023-05-21T03:33:43.695Z,1018.42
2023-05-21T03:34:47.192Z,1018.42
2023-05-21T03:35:50.600Z,1018.42
2023-05-21T03:37:25.705Z,1018.39
2023-05-21T03:38:28.575Z,1018.39
2023-05-21T03:39:34.608Z,1018.43
2023-05-21T03:41:09.678Z,1018.43
2023-05-21T03:42:12.541Z,1018.46
2023-05-21T03:43:15.458Z,1018.47
2023-05-21T03:44:50.718Z,1018.43
2023-05-21T03:45:55.986Z,1018.43
2023-05-21T03:46:59.266Z,1018.36
2023-05-21T03:48:34.689Z,1018.40
2023-05-21T03:49:37.715Z,1018.37
2023-05-21T03:50:41.086Z,1018.41
2023-05-21T03:52:16.156Z,1018.38
2023-05-21T03:53:19.482Z,1018.37
2023-05-21T03:54:22.623Z,1018.40
2023-05-21T03:55:57.506Z,1018.41
2023-05-21T03:57:01.241Z,1018.39
2023-05-21T03:58:04.067Z,1018.41
2023-05-21T03:59:39.032Z,1018.35
2023-05-21T04:01:27.061Z,1018.43
2023-05-21T04:02:30.323Z,1018.39
2023-05-21T04:04:07.063Z,1018.41
2023-05-21T04:05:54.555Z,1018.41
2023-05-21T04:06:57.892Z,1018.40
2023-05-21T04:08:01.479Z,1018.43
2023-05-21T04:09:37.114Z,1018.44
2023-05-21T04:10:40.489Z,1018.39
2023-05-21T04:11:44.084Z,1018.38
2023-05-21T04:13:19.641Z,1018.40
2023-05-21T04:14:23.340Z,1018.41
2023-05-21T04:15:26.783Z,1018.45
2023-05-21T04:17:03.205Z,1018.41
2023-05-21T04:18:06.833Z,1018.43
2023-05-21T04:19:10.155Z,1018.43
2023-05-21T04:20:46.305Z,1018.46
2023-05-21T04:21:49.850Z,1018.48
2023-05-21T04:22:53.381Z,1018.46
2023-05-21T04:24:29.034Z,1018.45
2023-05-21T04:25:32.592Z,1018.47
2023-05-21T04:26:36.023Z,1018.45
2023-05-21T04:28:11.618Z,1018.52
2023-05-21T04:29:15.507Z,1018.52
2023-05-21T04:30:19.032Z,1018.54
2023-05-21T04:31:55.120Z,1018.56
2023-05-21T04:32:58.655Z,1018.56
2023-05-21T04:34:02.171Z,1018.55
2023-05-21T04:35:38.180Z,1018.58
2023-05-21T04:36:42.411Z,1018.59
2023-05-21T04:37:45.671Z,1018.54
2023-05-21T04:39:22.912Z,1018.56
2023-05-21T04:40:26.368Z,1018.58
2023-05-21T04:41:29.915Z,1018.56
2023-05-21T04:43:05.066Z,1018.59
2023-05-21T04:44:08.655Z,1018.60
2023-05-21T04:45:12.082Z,1018.62
2023-05-21T04:46:47.785Z,1018.60
2023-05-21T04:47:52.204Z,1018.64
2023-05-21T04:48:55.861Z,1018.61
2023-05-21T04:50:31.536Z,1018.64
2023-05-21T04:51:35.108Z,1018.64
2023-05-21T04:52:38.483Z,1018.64
2023-05-21T04:54:14.104Z,1018.63
2023-05-21T04:55:17.683Z,1018.62
2023-05-21T04:56:21.440Z,1018.64
2023-05-21T04:57:57.023Z,1018.61
2023-05-21T04:59:00.358Z,1018.62
2023-05-21T05:00:23.503Z,1018.62
2023-05-21T05:01:27.465Z,1018.61
2023-05-21T05:02:31.235Z,1018.59
2023-05-21T05:04:07.124Z,1018.58
2023-05-21T05:05:10.679Z,1018.56
2023-05-21T05:06:14.210Z,1018.56
2023-05-21T05:07:49.667Z,1018.53
2023-05-21T05:08:52.716Z,1018.53
2023-05-21T05:09:56.012Z,1018.52
2023-05-21T05:11:31.502Z,1018.54
2023-05-21T05:12:35.015Z,1018.53
2023-05-21T05:13:38.200Z,1018.54
2023-05-21T05:15:13.912Z,1018.52
2023-05-21T05:16:17.320Z,1018.53
2023-05-21T05:17:20.941Z,1018.53
2023-05-21T05:18:56.795Z,1018.52
2023-05-21T05:20:00.235Z,1018.46
2023-05-21T05:21:03.499Z,1018.48
2023-05-21T05:22:38.682Z,1018.48
2023-05-21T05:23:41.810Z,1018.49
2023-05-21T05:24:45.058Z,1018.52
2023-05-21T05:26:20.270Z,1018.51
2023-05-21T05:27:23.495Z,1018.51
2023-05-21T05:28:30.391Z,1018.48
2023-05-21T05:30:05.643Z,1018.49
2023-05-21T05:31:09.314Z,1018.48
2023-05-21T05:32:13.111Z,1018.52
2023-05-21T05:33:48.952Z,1018.49
2023-05-21T05:34:52.323Z,1018.47
2023-05-21T05:35:56.438Z,1018.45
2023-05-21T05:37:31.505Z,1018.45
2023-05-21T05:38:34.579Z,1018.43
2023-05-21T05:39:37.751Z,1018.42
2023-05-21T05:41:13.018Z,1018.45
2023-05-21T05:42:16.023Z,1018.50
2023-05-21T05:43:19.389Z,1018.46
2023-05-21T05:44:57.412Z,1018.53
2023-05-21T05:46:00.749Z,1018.51
2023-05-21T05:47:04.348Z,1018.47
2023-05-21T05:48:39.866Z,1018.51
2023-05-21T05:49:43.607Z,1018.52
2023-05-21T05:50:47.029Z,1018.48
2023-05-21T05:52:22.560Z,1018.51
2023-05-21T05:53:25.849Z,1018.48
2023-05-21T05:54:29.128Z,1018.48
2023-05-21T05:56:04.048Z,1018.44
2023-05-21T05:57:07.485Z,1018.45
2023-05-21T05:58:10.608Z,1018.45
2023-05-21T05:59:45.899Z,1018.47
2023-05-21T06:01:27.312Z,1018.48
2023-05-21T06:02:30.865Z,1018.45
2023-05-21T06:04:06.999Z,1018.47
2023-05-21T06:05:10.490Z,1018.46
2023-05-21T06:06:14.211Z,1018.48
2023-05-21T06:07:50.090Z,1018.48
2023-05-21T06:08:53.540Z,1018.45
2023-05-21T06:09:56.852Z,1018.49
2023-05-21T06:11:32.330Z,1018.48
2023-05-21T06:12:35.742Z,1018.46
2023-05-21T06:13:39.008Z,1018.46
2023-05-21T06:15:13.802Z,1018.49
2023-05-21T06:16:17.011Z,1018.51
2023-05-21T06:17:20.490Z,1018.53
2023-05-21T06:18:56.373Z,1018.51
2023-05-21T06:20:00.168Z,1018.51
2023-05-21T06:21:03.491Z,1018.53
2023-05-21T06:22:39.006Z,1018.46
2023-05-21T06:23:42.268Z,1018.51
2023-05-21T06:24:45.577Z,1018.51
2023-05-21T06:26:21.439Z,1018.52
2023-05-21T06:27:24.394Z,1018.53
2023-05-21T06:28:27.393Z,1018.51
2023-05-21T06:30:02.708Z,1018.51
2023-05-21T06:31:06.162Z,1018.50
2023-05-21T06:32:09.380Z,1018.51
2023-05-21T06:33:45.237Z,1018.51
2023-05-21T06:34:49.356Z,1018.45
2023-05-21T06:35:52.533Z,1018.47
2023-05-21T06:37:30.514Z,1018.47
2023-05-21T06:38:33.838Z,1018.46
2023-05-21T06:39:37.311Z,1018.45
2023-05-21T06:41:12.718Z,1018.44
2023-05-21T06:42:15.702Z,1018.46
2023-05-21T06:43:18.937Z,1018.43
2023-05-21T06:44:54.359Z,1018.43
2023-05-21T06:45:58.056Z,1018.38
2023-05-21T06:47:01.681Z,1018.40
2023-05-21T06:48:36.881Z,1018.40
2023-05-21T06:49:40.107Z,1018.38
2023-05-21T06:50:43.307Z,1018.33
2023-05-21T06:52:18.294Z,1018.32
2023-05-21T06:53:21.800Z,1018.33
2023-05-21T06:54:26.952Z,1018.37
2023-05-21T06:56:02.423Z,1018.33
2023-05-21T06:57:05.473Z,1018.32
2023-05-21T06:58:08.766Z,1018.29
2023-05-21T06:59:44.222Z,1018.30
2023-05-21T07:01:26.918Z,1018.26
2023-05-21T07:02:31.304Z,1018.28
2023-05-21T07:04:07.516Z,1018.31
2023-05-21T07:05:10.692Z,1018.31
2023-05-21T07:06:13.776Z,1018.32
2023-05-21T07:07:49.150Z,1018.30
2023-05-21T07:08:52.486Z,1018.27
2023-05-21T07:09:55.819Z,1018.34
2023-05-21T07:11:31.422Z,1018.35
2023-05-21T07:12:35.005Z,1018.32
2023-05-21T07:13:38.331Z,1018.37
2023-05-21T07:15:13.897Z,1018.36
2023-05-21T07:16:17.341Z,1018.36
2023-05-21T07:17:21.186Z,1018.34
2023-05-21T07:18:56.762Z,1018.34
2023-05-21T07:20:00.231Z,1018.36
2023-05-21T07:21:03.516Z,1018.38
2023-05-21T07:22:40.153Z,1018.35
2023-05-21T07:23:43.365Z,1018.37
2023-05-21T07:24:46.418Z,1018.33
2023-05-21T07:26:22.152Z,1018.34
2023-05-21T07:27:37.337Z,1018.35
2023-05-21T07:28:40.823Z,1018.33
2023-05-21T07:30:16.274Z,1018.32
2023-05-21T07:31:20.073Z,1018.33
2023-05-21T07:32:23.852Z,1018.34
2023-05-21T07:33:59.480Z,1018.35
2023-05-21T07:35:05.756Z,1018.32
2023-05-21T07:36:09.117Z,1018.29
2023-05-21T07:37:44.328Z,1018.25
2023-05-21T07:38:47.665Z,1018.25
2023-05-21T07:39:50.924Z,1018.27
2023-05-21T07:41:29.880Z,1018.24
2023-05-21T07:42:33.218Z,1018.27
2023-05-21T07:43:36.686Z,1018.30
2023-05-21T07:45:12.305Z,1018.26
2023-05-21T07:46:15.669Z,1018.23
2023-05-21T07:47:19.275Z,1018.22
2023-05-21T07:48:54.905Z,1018.25
2023-05-21T07:49:58.251Z,1018.25
2023-05-21T07:51:01.518Z,1018.20
2023-05-21T07:52:37.254Z,1018.21
2023-05-21T07:53:40.799Z,1018.20
2023-05-21T07:54:47.101Z,1018.15
2023-05-21T07:56:22.605Z,1018.08
2023-05-21T07:57:25.764Z,1018.08
2023-05-21T07:58:28.857Z,1018.11
2023-05-21T08:00:23.479Z,1018.08
2023-05-21T08:01:26.762Z,1018.09
2023-05-21T08:02:30.698Z,1018.05
2023-05-21T08:04:07.666Z,1018.06
2023-05-21T08:05:12.063Z,1018.03
2023-05-21T08:06:15.717Z,1018.02
2023-05-21T08:07:51.046Z,1018.02
2023-05-21T08:08:54.153Z,1018.03
2023-05-21T08:09:57.415Z,1018.02
2023-05-21T08:11:34.668Z,1018.09
2023-05-21T08:12:37.970Z,1018.07
2023-05-21T08:13:41.119Z,1018.04
2023-05-21T08:15:16.325Z,1018.03
2023-05-21T08:16:19.491Z,1018.03
2023-05-21T08:17:23.236Z,1018.00
2023-05-21T08:18:58.786Z,1018.00
2023-05-21T08:20:02.380Z,1018.06
2023-05-21T08:21:05.713Z,1018.05
2023-05-21T08:22:41.003Z,1018.05
2023-05-21T08:23:44.232Z,1018.05
2023-05-21T08:24:47.341Z,1018.01
2023-05-21T08:26:23.402Z,1017.96
2023-05-21T08:27:26.449Z,1017.99
2023-05-21T08:28:29.670Z,1017.99
2023-05-21T08:30:04.876Z,1017.95
2023-05-21T08:31:08.099Z,1017.95
2023-05-21T08:32:11.912Z,1017.91
2023-05-21T08:33:47.304Z,1017.91
2023-05-21T08:34:50.744Z,1017.94
2023-05-21T08:35:54.322Z,1017.96
2023-05-21T08:37:29.931Z,1017.96
2023-05-21T08:38:35.811Z,1017.94
2023-05-21T08:39:39.139Z,1017.94
2023-05-21T08:41:14.520Z,1017.98
2023-05-21T08:42:32.768Z,1018.01
2023-05-21T08:43:39.836Z,1017.99
2023-05-21T08:45:19.058Z,1017.97
2023-05-21T08:46:22.913Z,1018.02
2023-05-21T08:47:26.530Z,1018.00
2023-05-21T08:49:01.998Z,1017.97
2023-05-21T08:50:05.163Z,1017.95
2023-05-21T08:51:08.624Z,1017.96
2023-05-21T08:52:43.997Z,1017.94
2023-05-21T08:53:47.230Z,1017.98
2023-05-21T08:54:50.438Z,1017.97
2023-05-21T08:56:25.715Z,1017.97
2023-05-21T08:57:28.897Z,1018.01
2023-05-21T08:58:32.180Z,1017.97
2023-05-21T09:00:23.827Z,1017.99
2023-05-21T09:01:30.603Z,1017.95
2023-05-21T09:02:34.487Z,1018.00
2023-05-21T09:04:27.542Z,1018.01
2023-05-21T09:05:31.191Z,1017.99
2023-05-21T09:06:34.737Z,1017.97
2023-05-21T09:08:10.213Z,1017.98
2023-05-21T09:09:13.540Z,1017.97
2023-05-21T09:10:17.369Z,1017.98
2023-05-21T09:11:52.658Z,1017.95
2023-05-21T09:12:55.861Z,1017.91
2023-05-21T09:13:59.441Z,1017.91
2023-05-21T09:15:35.180Z,1017.88
2023-05-21T09:16:38.591Z,1017.89
2023-05-21T09:17:42.182Z,1017.86
2023-05-21T09:19:17.492Z,1017.87
2023-05-21T09:20:21.745Z,1017.82
2023-05-21T09:21:24.992Z,1017.81
2023-05-21T09:23:00.526Z,1017.85
2023-05-21T09:24:03.826Z,1017.83
2023-05-21T09:25:07.171Z,1017.83
2023-05-21T09:26:42.721Z,1017.85
2023-05-21T09:27:45.717Z,1017.83
2023-05-21T09:28:49.206Z,1017.82
2023-05-21T09:30:27.545Z,1017.84
2023-05-21T09:31:34.637Z,1017.80
2023-05-21T09:32:38.342Z,1017.76
2023-05-21T09:34:13.800Z,1017.81
2023-05-21T09:35:17.315Z,1017.78
2023-05-21T09:36:22.589Z,1017.83
2023-05-21T09:38:13.219Z,1017.79
2023-05-21T09:39:16.788Z,1017.82
2023-05-21T09:40:20.310Z,1017.80
2023-05-21T09:41:55.949Z,1017.76
2023-05-21T09:42:59.409Z,1017.69
2023-05-21T09:44:02.935Z,1017.69
2023-05-21T09:45:38.749Z,1017.72
2023-05-21T09:46:44.407Z,1017.70
2023-05-21T09:47:48.097Z,1017.69
2023-05-21T09:49:23.970Z,1017.72
2023-05-21T09:50:27.370Z,1017.70
2023-05-21T09:51:31.171Z,1017.71
2023-05-21T09:53:06.460Z,1017.67
2023-05-21T09:54:09.572Z,1017.64
2023-05-21T09:55:12.913Z,1017.59
2023-05-21T09:56:48.205Z,1017.65
2023-05-21T09:57:53.280Z,1017.60
2023-05-21T09:58:56.910Z,1017.63
2023-05-21T10:00:23.756Z,1017.57
2023-05-21T10:01:27.792Z,1017.53
2023-05-21T10:02:31.916Z,1017.56
2023-05-21T10:04:08.187Z,1017.57
2023-05-21T10:05:11.611Z,1017.57
2023-05-21T10:06:14.804Z,1017.57
2023-05-21T10:07:50.414Z,1017.51
2023-05-21T10:08:53.793Z,1017.45
2023-05-21T10:09:58.173Z,1017.45
2023-05-21T10:11:33.415Z,1017.46
2023-05-21T10:12:36.761Z,1017.41
2023-05-21T10:13:40.182Z,1017.43
2023-05-21T10:15:15.292Z,1017.36
2023-05-21T10:16:18.804Z,1017.38
2023-05-21T10:17:22.296Z,1017.41
2023-05-21T10:18:58.146Z,1017.35
2023-05-21T10:20:01.865Z,1017.36
2023-05-21T10:21:05.499Z,1017.30
2023-05-21T10:22:41.024Z,1017.35
2023-05-21T10:23:44.295Z,1017.33
2023-05-21T10:24:47.393Z,1017.35
2023-05-21T10:26:22.561Z,1017.30
2023-05-21T10:27:25.715Z,1017.37
2023-05-21T10:28:30.591Z,1017.33
2023-05-21T10:30:06.091Z,1017.32
2023-05-21T10:31:09.548Z,1017.35
2023-05-21T10:32:12.885Z,1017.31
2023-05-21T10:33:49.231Z,1017.26
2023-05-21T10:34:52.581Z,1017.25
2023-05-21T10:35:59.263Z,1017.30
2023-05-21T10:37:34.718Z,1017.25
2023-05-21T10:38:38.269Z,1017.26
2023-05-21T10:39:41.868Z,1017.18
2023-05-21T10:41:17.162Z,1017.23
2023-05-21T10:42:20.460Z,1017.23
2023-05-21T10:43:23.834Z,1017.21
2023-05-21T10:44:59.214Z,1017.17
2023-05-21T10:46:02.653Z,1017.16
2023-05-21T10:47:06.524Z,1017.12
2023-05-21T10:48:41.622Z,1017.08
2023-05-21T10:49:44.887Z,1017.01
2023-05-21T10:50:48.417Z,1017.04
2023-05-21T10:52:23.630Z,1017.00
2023-05-21T10:53:27.158Z,1016.97
2023-05-21T10:54:30.466Z,1017.05
2023-05-21T10:56:05.674Z,1017.02
2023-05-21T10:57:09.073Z,1017.06
2023-05-21T10:58:12.337Z,1017.02
2023-05-21T10:59:48.462Z,1016.96
2023-05-21T11:01:26.557Z,1016.96
2023-05-21T11:02:30.154Z,1016.98
2023-05-21T11:04:05.991Z,1016.95
2023-05-21T11:05:09.117Z,1016.92
2023-05-21T11:06:12.168Z,1016.93
2023-05-21T11:07:47.818Z,1016.90
2023-05-21T11:08:52.655Z,1016.91
2023-05-21T11:09:57.755Z,1016.94
2023-05-21T11:11:33.494Z,1016.91
2023-05-21T11:12:37.298Z,1016.89
2023-05-21T11:13:40.601Z,1016.91
2023-05-21T11:15:15.932Z,1016.95
2023-05-21T11:16:19.125Z,1016.89
2023-05-21T11:17:23.001Z,1016.86
2023-05-21T11:18:58.896Z,1016.84
2023-05-21T11:20:02.501Z,1016.83
2023-05-21T11:21:05.727Z,1016.83
2023-05-21T11:22:41.005Z,1016.74
2023-05-21T11:23:44.474Z,1016.79
2023-05-21T11:24:50.555Z,1016.84
2023-05-21T11:26:26.387Z,1016.81
2023-05-21T11:27:29.646Z,1016.83
2023-05-21T11:28:33.063Z,1016.75
2023-05-21T11:30:08.503Z,1016.72
2023-05-21T11:31:11.907Z,1016.72
2023-05-21T11:32:15.615Z,1016.75
2023-05-21T11:33:51.290Z,1016.72
2023-05-21T11:34:54.408Z,1016.71
2023-05-21T11:35:57.516Z,1016.76
2023-05-21T11:37:32.787Z,1016.74
2023-05-21T11:38:36.028Z,1016.66
2023-05-21T11:39:39.298Z,1016.68
2023-05-21T11:41:14.740Z,1016.68
2023-05-21T11:42:17.837Z,1016.66
2023-05-21T11:43:21.315Z,1016.68
2023-05-21T11:44:56.662Z,1016.65
2023-05-21T11:46:00.197Z,1016.64
2023-05-21T11:47:03.639Z,1016.63
2023-05-21T11:48:41.884Z,1016.67
2023-05-21T11:49:45.125Z,1016.67
2023-05-21T11:50:49.061Z,1016.65
2023-05-21T11:52:24.159Z,1016.63
2023-05-21T11:53:27.302Z,1016.60
2023-05-21T11:54:30.925Z,1016.60
2023-05-21T11:56:06.011Z,1016.59
2023-05-21T11:57:09.363Z,1016.62
2023-05-21T11:58:12.817Z,1016.59
2023-05-21T11:59:48.289Z,1016.55
2023-05-21T12:01:27.134Z,1016.56
2023-05-21T12:02:30.952Z,1016.51
2023-05-21T12:04:07.269Z,1016.53
2023-05-21T12:05:12.532Z,1016.53
2023-05-21T12:06:17.144Z,1016.54
2023-05-21T12:07:52.950Z,1016.53
2023-05-21T12:08:56.054Z,1016.52
2023-05-21T12:09:59.397Z,1016.56
2023-05-21T12:11:34.188Z,1016.53
2023-05-21T12:12:57.324Z,1016.55
2023-05-21T12:14:00.883Z,1016.51
2023-05-21T12:15:36.634Z,1016.51
2023-05-21T12:16:40.228Z,1016.49
2023-05-21T12:17:44.274Z,1016.47
2023-05-21T12:19:20.070Z,1016.47
2023-05-21T12:20:23.940Z,1016.41
2023-05-21T12:21:27.382Z,1016.42
2023-05-21T12:23:02.861Z,1016.37
2023-05-21T12:24:06.036Z,1016.38
2023-05-21T12:25:09.562Z,1016.39
2023-05-21T12:26:45.246Z,1016.36
2023-05-21T12:27:48.232Z,1016.35
2023-05-21T12:28:51.480Z,1016.32
2023-05-21T12:30:26.552Z,1016.40
2023-05-21T12:31:30.112Z,1016.33
2023-05-21T12:32:33.622Z,1016.32
2023-05-21T12:34:11.643Z,1016.26
2023-05-21T12:35:15.098Z,1016.30
2023-05-21T12:36:18.815Z,1016.27
2023-05-21T12:37:53.905Z,1016.26
2023-05-21T12:38:57.165Z,1016.26
2023-05-21T12:40:03.209Z,1016.27
2023-05-21T12:41:38.520Z,1016.29
2023-05-21T12:42:41.720Z,1016.28
2023-05-21T12:43:44.974Z,1016.26
2023-05-21T12:45:23.034Z,1016.28
2023-05-21T12:46:26.415Z,1016.30
2023-05-21T12:47:29.947Z,1016.28
2023-05-21T12:49:05.467Z,1016.26
2023-05-21T12:50:08.835Z,1016.26
2023-05-21T12:51:12.115Z,1016.25
2023-05-21T12:52:47.529Z,1016.23
2023-05-21T12:53:50.876Z,1016.22
2023-05-21T12:54:54.393Z,1016.22
2023-05-21T12:56:32.730Z,1016.20
2023-05-21T12:57:36.215Z,1016.20
2023-05-21T12:58:39.389Z,1016.22
2023-05-21T13:00:23.640Z,1016.18
2023-05-21T13:01:27.846Z,1016.20
2023-05-21T13:02:31.255Z,1016.14
2023-05-21T13:04:08.123Z,1016.14
2023-05-21T13:05:11.797Z,1016.13
2023-05-21T13:06:15.385Z,1016.11
2023-05-21T13:07:51.882Z,1016.12
2023-05-21T13:08:55.223Z,1016.07
2023-05-21T13:09:58.623Z,1016.06
2023-05-21T13:11:34.205Z,1016.07
2023-05-21T13:12:37.901Z,1016.02
2023-05-21T13:13:42.925Z,1016.01
2023-05-21T13:15:18.040Z,1016.02
2023-05-21T13:16:21.857Z,1016.04
2023-05-21T13:17:25.135Z,1016.04
2023-05-21T13:19:00.761Z,1016.02
2023-05-21T13:20:04.305Z,1015.98
2023-05-21T13:21:08.374Z,1015.97
2023-05-21T13:22:43.638Z,1015.94
2023-05-21T13:23:50.185Z,1015.92
2023-05-21T13:24:53.315Z,1015.90
2023-05-21T13:26:28.672Z,1015.89
2023-05-21T13:27:31.788Z,1015.88
2023-05-21T13:28:35.438Z,1015.88
2023-05-21T13:30:12.451Z,1015.88
2023-05-21T13:31:15.592Z,1015.91
2023-05-21T13:32:19.028Z,1015.85
2023-05-21T13:33:55.203Z,1015.85
2023-05-21T13:34:58.263Z,1015.85
2023-05-21T13:36:01.419Z,1015.88
2023-05-21T13:37:36.518Z,1015.81
2023-05-21T13:38:39.650Z,1015.82
2023-05-21T13:39:42.836Z,1015.82
2023-05-21T13:41:18.310Z,1015.82
2023-05-21T13:42:21.631Z,1015.84
2023-05-21T13:43:25.021Z,1015.82
2023-05-21T13:45:00.010Z,1015.87
2023-05-21T13:46:03.265Z,1015.84
2023-05-21T13:47:06.674Z,1015.88
2023-05-21T13:48:41.597Z,1015.93
2023-05-21T13:49:45.002Z,1015.94
2023-05-21T13:50:48.513Z,1015.94
2023-05-21T13:52:25.664Z,1015.91
2023-05-21T13:53:28.833Z,1015.96
2023-05-21T13:54:31.960Z,1015.86
2023-05-21T13:56:07.127Z,1015.87
2023-05-21T13:57:10.153Z,1015.87
2023-05-21T13:58:13.287Z,1015.87
2023-05-21T13:59:48.856Z,1015.84
2023-05-21T14:01:27.366Z,1015.78
2023-05-21T14:02:31.534Z,1015.83
2023-05-21T14:04:07.623Z,1015.86
2023-05-21T14:05:10.779Z,1015.78
2023-05-21T14:06:13.699Z,1015.83
2023-05-21T14:07:48.889Z,1015.80
2023-05-21T14:08:52.026Z,1015.84
2023-05-21T14:09:55.234Z,1015.81
2023-05-21T14:11:30.690Z,1015.80
2023-05-21T14:12:33.833Z,1015.77
2023-05-21T14:13:36.896Z,1015.77
2023-05-21T14:15:11.935Z,1015.77
2023-05-21T14:16:15.325Z,1015.74
2023-05-21T14:17:19.100Z,1015.71
2023-05-21T14:18:55.122Z,1015.70
2023-05-21T14:19:58.632Z,1015.71
2023-05-21T14:21:02.088Z,1015.66
2023-05-21T14:22:37.328Z,1015.72
2023-05-21T14:23:40.291Z,1015.72
2023-05-21T14:24:43.578Z,1015.64
2023-05-21T14:26:18.543Z,1015.66
2023-05-21T14:27:21.737Z,1015.71
2023-05-21T14:28:24.814Z,1015.67
2023-05-21T14:30:00.163Z,1015.67
2023-05-21T14:31:03.317Z,1015.72
2023-05-21T14:32:06.550Z,1015.70
2023-05-21T14:33:44.269Z,1015.77
2023-05-21T14:34:47.332Z,1015.75
2023-05-21T14:35:50.746Z,1015.76
2023-05-21T14:37:26.069Z,1015.69
2023-05-21T14:38:29.275Z,1015.70
2023-05-21T14:39:32.807Z,1015.72
2023-05-21T14:41:07.889Z,1015.71
2023-05-21T14:42:10.990Z,1015.73
2023-05-21T14:43:14.621Z,1015.69
2023-05-21T14:44:49.630Z,1015.69
2023-05-21T14:46:09.900Z,1015.69
2023-05-21T14:47:13.135Z,1015.69
2023-05-21T14:48:48.286Z,1015.70
2023-05-21T14:49:51.889Z,1015.67
2023-05-21T14:50:55.302Z,1015.74
2023-05-21T14:52:30.470Z,1015.71
2023-05-21T14:53:33.830Z,1015.74
2023-05-21T14:54:37.448Z,1015.74
2023-05-21T14:56:12.976Z,1015.73
2023-05-21T14:57:16.261Z,1015.70
2023-05-21T14:58:19.459Z,1015.68
2023-05-21T14:59:54.505Z,1015.70
2023-05-21T15:01:27.326Z,1015.73
2023-05-21T15:02:31.417Z,1015.74
2023-05-21T15:04:08.300Z,1015.74
2023-05-21T15:05:11.888Z,1015.73
2023-05-21T15:06:15.144Z,1015.71